Time;durP1;ratioP1;P1;durP2;ratioP2;P2;SDS_P1;SDS_P2;PMS_P1;PMS_P2;Temp;Humidity;BMP_temperature;BMP_pressure;BME280_temperature;BME280_humidity;BME280_pressure;Samples;Min_cycle;Max_cycle;Signal;HPM_P1;HPM_P2
2021/11/30 00:01:39;;;;;;;9.27;4.03;;;4.40;99.90;;;;;;4991483;28;20055;-61
2021/11/30 00:04:05;;;;;;;9.18;3.65;;;4.50;99.90;;;;;;5007691;28;20136;-60
2021/11/30 00:06:33;;;;;;;8.95;3.55;;;4.50;99.90;;;;;;4991379;28;20088;-60
2021/11/30 00:09:10;;;;;;;7.70;3.63;;;4.50;99.90;;;;;;4989706;28;20053;-60
2021/11/30 00:11:37;;;;;;;6.53;3.10;;;4.50;99.90;;;;;;5007005;28;20046;-59
2021/11/30 00:14:03;;;;;;;9.10;3.10;;;4.50;99.90;;;;;;5005303;28;20509;-60
2021/11/30 00:16:30;;;;;;;8.75;3.35;;;4.50;99.90;;;;;;5006715;28;20052;-61
2021/11/30 00:18:56;;;;;;;10.32;3.15;;;4.50;99.90;;;;;;4989262;28;20129;-60
2021/11/30 00:21:22;;;;;;;8.80;3.00;;;4.60;99.90;;;;;;4989800;28;20124;-59
2021/11/30 00:23:48;;;;;;;7.95;3.08;;;4.60;99.90;;;;;;5005414;28;20202;-60
2021/11/30 00:26:15;;;;;;;8.80;2.72;;;4.70;99.90;;;;;;5006374;28;20060;-60
2021/11/30 00:28:41;;;;;;;11.65;2.90;;;4.80;99.90;;;;;;5006417;28;20091;-59
2021/11/30 00:31:07;;;;;;;7.25;2.70;;;4.70;99.90;;;;;;5023901;28;20049;-59
2021/11/30 00:33:33;;;;;;;9.25;3.05;;;4.80;99.90;;;;;;4990688;28;20565;-60
2021/11/30 00:35:59;;;;;;;6.97;2.53;;;4.70;99.90;;;;;;5025052;28;20053;-60
2021/11/30 00:38:26;;;;;;;6.32;2.55;;;4.80;99.90;;;;;;5007429;28;20501;-60
2021/11/30 00:40:53;;;;;;;9.65;2.83;;;4.80;99.90;;;;;;5029098;28;20054;-60
2021/11/30 00:43:23;;;;;;;7.82;2.80;;;4.80;99.90;;;;;;5030822;28;20049;-60
2021/11/30 00:45:58;;;;;;;7.20;2.15;;;4.80;99.90;;;;;;5012950;28;20053;-60
2021/11/30 00:48:31;;;;;;;9.15;2.50;;;4.80;99.90;;;;;;5013544;28;20052;-60
2021/11/30 00:51:06;;;;;;;9.52;2.30;;;4.80;99.90;;;;;;5013240;28;20057;-60
2021/11/30 00:53:33;;;;;;;7.28;1.88;;;4.80;99.90;;;;;;5012934;28;20119;-60
2021/11/30 00:55:59;;;;;;;9.95;2.47;;;4.80;99.90;;;;;;4994136;28;20061;-60
2021/11/30 00:58:25;;;;;;;7.68;2.08;;;4.70;99.90;;;;;;5007256;28;20497;-60
2021/11/30 01:00:52;;;;;;;8.55;1.90;;;4.80;99.90;;;;;;5030287;28;20566;-60
2021/11/30 01:03:18;;;;;;;5.57;1.80;;;4.80;99.90;;;;;;5012422;28;20045;-59
2021/11/30 01:05:44;;;;;;;7.53;1.80;;;4.70;99.90;;;;;;5030234;28;20061;-60
2021/11/30 01:08:10;;;;;;;9.07;2.40;;;4.80;99.90;;;;;;5030091;28;20053;-60
2021/11/30 01:10:36;;;;;;;9.38;2.08;;;4.80;99.90;;;;;;4994738;28;20509;-60
2021/11/30 01:13:04;;;;;;;7.40;2.05;;;4.90;99.90;;;;;;5012778;28;20049;-59
2021/11/30 01:15:30;;;;;;;10.07;2.53;;;4.80;99.90;;;;;;4992985;28;20121;-60
2021/11/30 01:17:57;;;;;;;7.63;2.55;;;4.80;99.90;;;;;;5030154;28;20042;-60
2021/11/30 01:20:24;;;;;;;17.92;2.80;;;4.70;99.90;;;;;;5030396;28;20065;-60
2021/11/30 01:22:52;;;;;;;7.95;2.63;;;4.60;99.90;;;;;;5012205;28;20660;-60
2021/11/30 01:25:18;;;;;;;11.30;3.28;;;4.50;99.90;;;;;;4996750;28;20527;-59
2021/11/30 01:27:46;;;;;;;7.22;2.88;;;4.40;99.90;;;;;;5029721;28;20037;-59
2021/11/30 01:30:14;;;;;;;9.65;3.03;;;4.40;99.90;;;;;;5029589;28;20119;-60
2021/11/30 01:32:42;;;;;;;10.10;4.43;;;4.40;99.90;;;;;;5029321;28;20501;-60
2021/11/30 01:35:10;;;;;;;9.07;3.83;;;4.30;99.90;;;;;;4994890;28;20049;-60
2021/11/30 01:37:38;;;;;;;9.77;3.70;;;4.20;99.90;;;;;;5011494;28;20051;-59
2021/11/30 01:40:09;;;;;;;13.52;3.90;;;4.20;99.90;;;;;;5010766;28;20087;-60
2021/11/30 01:42:36;;;;;;;8.80;3.55;;;4.20;99.90;;;;;;5011562;28;20057;-59
2021/11/30 01:45:08;;;;;;;9.50;3.65;;;4.20;99.90;;;;;;5029469;28;20049;-60
2021/11/30 01:50:10;;;;;;;13.73;4.88;;;4.10;99.90;;;;;;5029524;28;19964;-60
2021/11/30 01:52:36;;;;;;;10.60;4.30;;;4.10;99.90;;;;;;5029427;28;20041;-59
2021/11/30 01:55:04;;;;;;;9.02;4.97;;;4.10;99.90;;;;;;5012477;28;20528;-61
2021/11/30 01:57:30;;;;;;;15.05;5.55;;;4.10;99.90;;;;;;5011027;28;20049;-60
2021/11/30 01:59:56;;;;;;;11.30;5.10;;;4.00;99.90;;;;;;5012956;28;20128;-59
2021/11/30 02:02:23;;;;;;;13.35;5.95;;;4.00;99.90;;;;;;5029433;28;20041;-60
2021/11/30 02:04:49;;;;;;;15.48;6.97;;;4.00;99.90;;;;;;5032047;28;20593;-61
2021/11/30 02:07:16;;;;;;;18.67;7.95;;;3.90;99.90;;;;;;5050027;28;20048;-60
2021/11/30 02:09:44;;;;;;;13.07;7.82;;;4.00;99.90;;;;;;5032379;28;20057;-60
2021/11/30 02:12:10;;;;;;;13.55;8.48;;;4.00;99.90;;;;;;4996235;28;20077;-59
2021/11/30 02:14:37;;;;;;;16.45;9.32;;;4.00;99.90;;;;;;5030476;28;20057;-60
2021/11/30 02:17:07;;;;;;;17.25;8.13;;;3.90;99.90;;;;;;4994730;28;20075;-60
2021/11/30 02:19:41;;;;;;;18.88;8.77;;;4.00;99.90;;;;;;5028068;28;20045;-60
2021/11/30 02:22:11;;;;;;;16.88;9.65;;;4.00;99.90;;;;;;5011593;28;20126;-61
2021/11/30 02:24:38;;;;;;;18.75;10.40;;;4.00;99.90;;;;;;5029809;28;20055;-58
2021/11/30 02:27:05;;;;;;;18.75;9.43;;;3.90;99.90;;;;;;5011370;28;20056;-58
2021/11/30 02:29:31;;;;;;;13.70;8.95;;;4.00;99.90;;;;;;5011671;28;20066;-60
2021/11/30 02:31:57;;;;;;;16.58;8.57;;;4.00;99.90;;;;;;5028886;28;20137;-59
2021/11/30 02:34:24;;;;;;;12.27;8.50;;;4.00;99.90;;;;;;5010900;28;20052;-61
2021/11/30 02:36:54;;;;;;;12.70;9.02;;;4.00;99.90;;;;;;5010335;28;20061;-61
2021/11/30 02:39:23;;;;;;;14.63;10.13;;;4.00;99.90;;;;;;5028598;28;20040;-62
2021/11/30 02:41:52;;;;;;;14.75;10.32;;;4.00;99.90;;;;;;5027287;28;20377;-61
2021/11/30 02:44:20;;;;;;;18.35;11.93;;;4.10;99.90;;;;;;5011542;28;20559;-61
2021/11/30 02:46:57;;;;;;;17.35;11.43;;;4.10;99.90;;;;;;4994794;28;20056;-61
2021/11/30 02:49:26;;;;;;;15.15;12.45;;;4.10;99.90;;;;;;4994671;28;20787;-61
2021/11/30 02:52:03;;;;;;;15.55;13.10;;;4.10;99.90;;;;;;5011895;28;20495;-60
2021/11/30 02:54:30;;;;;;;14.75;13.15;;;4.10;99.90;;;;;;5029516;28;20515;-59
2021/11/30 02:56:59;;;;;;;20.95;14.80;;;4.10;99.90;;;;;;4994252;28;20038;-61
2021/11/30 02:59:27;;;;;;;16.10;14.02;;;4.20;99.90;;;;;;5028416;28;20393;-61
2021/11/30 03:02:02;;;;;;;17.45;15.60;;;4.20;99.90;;;;;;4994522;28;20115;-61
2021/11/30 03:04:29;;;;;;;17.60;15.07;;;4.20;99.90;;;;;;5010459;28;20057;-59
2021/11/30 03:06:57;;;;;;;18.65;15.35;;;4.20;99.90;;;;;;5009610;28;20539;-60
2021/11/30 03:09:23;;;;;;;21.60;16.20;;;4.20;99.90;;;;;;5024861;28;20108;-61
2021/11/30 03:11:51;;;;;;;19.67;16.00;;;4.30;99.90;;;;;;4966015;28;20380;-61
2021/11/30 03:14:17;;;;;;;17.08;15.10;;;4.30;99.90;;;;;;5027709;28;20111;-61
2021/11/30 03:16:46;;;;;;;20.13;15.75;;;4.40;99.90;;;;;;5010126;28;20087;-61
2021/11/30 03:19:15;;;;;;;17.45;15.75;;;4.40;99.90;;;;;;5028558;28;20124;-61
2021/11/30 03:21:41;;;;;;;17.13;15.32;;;4.40;99.90;;;;;;4993814;28;20053;-61
2021/11/30 03:24:07;;;;;;;16.67;14.98;;;4.40;99.90;;;;;;5027113;28;20054;-60
2021/11/30 03:26:34;;;;;;;17.17;15.18;;;4.50;99.90;;;;;;5028163;28;20101;-61
2021/11/30 03:29:00;;;;;;;15.63;13.93;;;4.50;99.90;;;;;;4983890;28;20046;-60
2021/11/30 03:31:35;;;;;;;15.07;13.52;;;4.60;99.90;;;;;;5010309;28;20111;-61
2021/11/30 03:34:05;;;;;;;16.63;14.02;;;4.60;99.90;;;;;;5028460;28;20042;-61
2021/11/30 03:36:33;;;;;;;14.73;13.07;;;4.60;99.90;;;;;;5028787;28;20046;-61
2021/11/30 03:39:02;;;;;;;15.35;13.93;;;4.70;99.90;;;;;;4993535;28;20057;-61
2021/11/30 03:41:31;;;;;;;14.95;13.32;;;4.60;99.90;;;;;;4994230;28;20058;-61
2021/11/30 03:43:58;;;;;;;14.88;12.50;;;4.70;99.90;;;;;;5009710;28;20124;-61
2021/11/30 03:46:24;;;;;;;15.10;13.60;;;4.70;99.90;;;;;;5027685;28;20076;-61
2021/11/30 03:48:51;;;;;;;14.70;13.20;;;4.70;99.90;;;;;;5028490;28;20057;-61
2021/11/30 03:51:17;;;;;;;13.45;12.05;;;4.80;99.90;;;;;;5009388;28;20041;-61
2021/11/30 03:53:43;;;;;;;14.85;12.98;;;4.80;99.90;;;;;;5010522;28;20759;-60
2021/11/30 03:56:09;;;;;;;14.73;12.63;;;4.80;99.90;;;;;;5029296;28;20049;-61
2021/11/30 03:58:35;;;;;;;12.55;11.35;;;4.80;99.90;;;;;;5009276;28;20085;-61
2021/11/30 04:01:02;;;;;;;12.32;10.20;;;4.90;99.90;;;;;;5007835;28;20124;-60
2021/11/30 04:03:31;;;;;;;12.65;11.35;;;4.90;99.90;;;;;;5012809;28;20095;-61
2021/11/30 04:05:57;;;;;;;11.98;10.68;;;4.90;99.90;;;;;;4997099;28;20057;-60
2021/11/30 04:08:23;;;;;;;12.68;11.38;;;4.90;99.90;;;;;;5013532;28;20076;-60
2021/11/30 04:10:49;;;;;;;13.88;11.10;;;5.00;99.90;;;;;;5032296;28;20140;-60
2021/11/30 04:13:15;;;;;;;13.73;12.20;;;5.00;99.90;;;;;;4997162;28;20046;-60
2021/11/30 04:15:41;;;;;;;14.18;12.68;;;5.00;99.90;;;;;;5012933;28;20132;-60
2021/11/30 04:18:07;;;;;;;15.27;11.98;;;5.10;99.90;;;;;;5013895;28;20046;-60
2021/11/30 04:20:34;;;;;;;14.02;12.52;;;5.10;99.90;;;;;;4981916;28;20057;-60
2021/11/30 04:23:00;;;;;;;14.90;12.80;;;5.10;99.90;;;;;;5029781;28;20045;-58
2021/11/30 04:25:26;;;;;;;15.73;14.07;;;5.10;99.90;;;;;;5031697;28;20080;-58
2021/11/30 04:27:52;;;;;;;17.98;14.38;;;5.20;99.90;;;;;;5013301;28;20060;-60
2021/11/30 04:30:18;;;;;;;16.63;14.88;;;5.20;99.90;;;;;;5031772;28;20100;-60
2021/11/30 04:32:45;;;;;;;17.38;15.52;;;5.30;99.90;;;;;;5023106;28;20053;-59
2021/11/30 04:35:12;;;;;;;18.48;16.10;;;5.30;99.90;;;;;;4998042;28;20396;-59
2021/11/30 04:37:38;;;;;;;18.75;15.68;;;5.30;99.90;;;;;;5012762;28;20049;-59
2021/11/30 04:40:08;;;;;;;18.30;15.00;;;5.30;99.90;;;;;;5013562;28;20049;-59
2021/11/30 04:42:34;;;;;;;21.58;16.67;;;5.40;99.90;;;;;;5030978;28;20049;-58
2021/11/30 04:47:33;;;;;;;20.88;15.48;;;5.40;99.90;;;;;;5013649;28;20045;-60
2021/11/30 04:50:02;;;;;;;19.70;15.10;;;5.50;99.90;;;;;;5030665;28;20060;-60
2021/11/30 04:52:30;;;;;;;20.38;14.07;;;5.60;99.90;;;;;;5019502;28;20045;-60
2021/11/30 04:54:57;;;;;;;22.13;15.27;;;5.60;99.90;;;;;;5001104;28;20045;-60
2021/11/30 04:57:23;;;;;;;24.02;16.20;;;5.70;99.90;;;;;;4996431;28;20048;-61
2021/11/30 04:59:50;;;;;;;23.40;16.00;;;5.70;99.90;;;;;;5013879;28;20144;-61
2021/11/30 05:02:16;;;;;;;26.08;17.55;;;5.80;99.90;;;;;;5031018;28;20049;-61
2021/11/30 05:04:43;;;;;;;30.90;17.77;;;5.90;99.90;;;;;;5012943;28;20057;-61
2021/11/30 05:07:09;;;;;;;27.52;18.33;;;6.00;99.90;;;;;;5013699;28;20049;-59
2021/11/30 05:09:36;;;;;;;34.00;19.02;;;6.10;99.90;;;;;;5022706;28;20139;-57
2021/11/30 05:12:02;;;;;;;30.83;18.13;;;6.10;99.90;;;;;;5000392;28;20106;-57
2021/11/30 05:14:28;;;;;;;30.35;19.00;;;6.20;99.90;;;;;;5012401;28;20500;-57
2021/11/30 05:16:54;;;;;;;31.90;18.75;;;6.20;99.90;;;;;;4996203;28;20049;-57
2021/11/30 05:19:20;;;;;;;32.33;19.77;;;6.20;99.90;;;;;;5013158;28;20591;-57
2021/11/30 05:21:46;;;;;;;33.42;19.10;;;6.20;99.90;;;;;;5011733;28;20055;-58
2021/11/30 05:24:13;;;;;;;33.58;20.52;;;6.30;99.90;;;;;;5029876;28;20052;-58
2021/11/30 05:26:39;;;;;;;36.20;20.63;;;6.30;99.90;;;;;;4994410;28;20072;-58
2021/11/30 05:29:06;;;;;;;36.33;20.75;;;6.30;99.90;;;;;;5012194;28;20060;-57
2021/11/30 05:31:32;;;;;;;35.10;20.50;;;6.30;99.90;;;;;;5011320;28;20057;-59
2021/11/30 05:33:59;;;;;;;38.55;21.00;;;6.30;99.90;;;;;;5030025;28;20124;-58
2021/11/30 05:36:26;;;;;;;40.55;20.45;;;6.30;99.90;;;;;;5008769;28;20077;-58
2021/11/30 05:38:52;;;;;;;28.52;18.80;;;6.30;99.90;;;;;;5027489;28;20489;-59
2021/11/30 05:41:18;;;;;;;30.90;16.35;;;6.40;99.90;;;;;;5029013;28;20053;-58
2021/11/30 05:43:45;;;;;;;28.55;14.77;;;6.50;99.90;;;;;;5021560;28;20049;-59
2021/11/30 05:46:11;;;;;;;19.10;10.50;;;6.60;99.90;;;;;;5029534;28;20053;-59
2021/11/30 05:48:37;;;;;;;19.08;10.00;;;6.80;99.90;;;;;;4996171;28;20092;-60
2021/11/30 05:51:04;;;;;;;15.10;7.63;;;7.00;99.90;;;;;;4998666;28;20465;-61
2021/11/30 05:53:31;;;;;;;13.77;6.18;;;7.10;99.90;;;;;;5032497;28;20491;-61
2021/11/30 05:55:59;;;;;;;12.00;4.68;;;7.30;99.90;;;;;;4995823;28;20049;-61
2021/11/30 05:58:26;;;;;;;10.68;4.57;;;7.40;99.90;;;;;;5009449;28;20045;-61
2021/11/30 06:00:53;;;;;;;11.30;4.35;;;7.50;99.90;;;;;;4994588;28;20046;-61
2021/11/30 06:03:56;;;;;;;17.88;4.50;;;7.60;99.90;;;;;;4963310;28;20560;-61
2021/11/30 06:06:20;;;;;;;9.20;3.63;;;7.70;99.90;;;;;;5029804;28;20049;-61
2021/11/30 06:08:47;;;;;;;12.73;3.20;;;7.70;99.90;;;;;;5012160;28;20069;-60
2021/11/30 06:11:13;;;;;;;12.48;3.03;;;7.70;99.90;;;;;;5014291;28;20049;-60
2021/11/30 06:13:39;;;;;;;10.85;3.53;;;7.70;99.90;;;;;;4995119;28;20838;-62
2021/11/30 06:16:05;;;;;;;14.75;3.55;;;7.70;99.90;;;;;;5014679;28;20049;-63
2021/11/30 06:18:31;;;;;;;13.50;3.58;;;7.80;99.90;;;;;;5019173;28;20048;-62
2021/11/30 06:20:58;;;;;;;15.25;3.47;;;7.80;99.90;;;;;;5028899;28;20037;-62
2021/11/30 06:23:24;;;;;;;18.58;3.90;;;7.90;99.90;;;;;;5020930;28;20078;-63
2021/11/30 06:25:50;;;;;;;13.95;3.30;;;7.90;99.90;;;;;;5013317;28;20187;-63
2021/11/30 06:28:16;;;;;;;16.38;2.97;;;7.90;99.90;;;;;;5029789;28;20052;-63
2021/11/30 06:30:42;;;;;;;20.65;4.53;;;8.00;99.90;;;;;;5031130;28;20053;-63
2021/11/30 06:33:09;;;;;;;14.48;3.08;;;8.00;99.90;;;;;;5028669;28;20492;-64
2021/11/30 06:35:37;;;;;;;17.52;3.20;;;8.00;99.90;;;;;;4994024;28;20405;-63
2021/11/30 06:38:05;;;;;;;17.02;2.85;;;8.00;99.90;;;;;;4979649;28;20132;-64
2021/11/30 06:40:31;;;;;;;20.23;3.40;;;8.00;99.90;;;;;;4996955;28;20046;-63
2021/11/30 06:42:58;;;;;;;16.20;3.15;;;8.00;99.90;;;;;;5012471;28;20061;-63
2021/11/30 06:45:24;;;;;;;16.88;2.78;;;8.00;99.90;;;;;;4974637;28;20453;-64
2021/11/30 06:47:50;;;;;;;19.40;3.55;;;8.00;99.90;;;;;;4995582;28;20057;-64
2021/11/30 06:50:16;;;;;;;8.05;2.30;;;8.00;99.90;;;;;;4979239;28;20049;-64
2021/11/30 06:52:43;;;;;;;20.27;3.05;;;7.90;99.90;;;;;;4994186;28;20049;-63
2021/11/30 06:55:10;;;;;;;19.40;3.05;;;8.00;99.90;;;;;;5010366;28;20069;-64
2021/11/30 06:57:36;;;;;;;22.42;3.80;;;8.00;99.90;;;;;;5031532;28;20059;-64
2021/11/30 07:00:05;;;;;;;15.07;3.50;;;8.00;99.90;;;;;;5034958;28;20057;-64
2021/11/30 07:02:33;;;;;;;18.52;3.72;;;8.00;99.90;;;;;;4978899;28;20140;-64
2021/11/30 07:05:06;;;;;;;16.67;3.33;;;8.00;99.90;;;;;;5011246;28;20057;-65
2021/11/30 07:15:58;;;;;;;22.27;3.28;;;7.90;99.90;;;;;;5011140;28;20058;-65
2021/11/30 07:18:25;;;;;;;21.20;6.90;;;7.90;99.90;;;;;;4994384;28;20046;-64
2021/11/30 07:20:53;;;;;;;24.63;3.35;;;7.80;99.90;;;;;;4994822;28;20065;-64
2021/11/30 07:23:20;;;;;;;16.30;3.30;;;7.80;99.90;;;;;;5025336;28;20045;-65
2021/11/30 07:25:51;;;;;;;14.57;2.72;;;7.80;99.90;;;;;;5011266;28;20047;-65
2021/11/30 07:28:28;;;;;;;19.77;2.70;;;7.80;99.90;;;;;;5012102;28;20049;-63
2021/11/30 07:31:10;;;;;;;20.75;3.58;;;7.80;99.90;;;;;;4998755;28;20053;-65
2021/11/30 07:33:38;;;;;;;13.93;3.17;;;7.80;99.90;;;;;;5024357;28;20085;-65
2021/11/30 07:36:06;;;;;;;14.25;2.53;;;7.80;99.90;;;;;;5007932;28;20185;-64
2021/11/30 07:38:33;;;;;;;16.20;3.17;;;7.80;99.90;;;;;;4985567;28;20494;-64
2021/11/30 07:40:59;;;;;;;20.77;3.00;;;7.80;99.90;;;;;;5019478;28;20064;-65
2021/11/30 07:43:25;;;;;;;15.15;2.83;;;7.80;99.90;;;;;;4984423;28;20111;-65
2021/11/30 07:45:52;;;;;;;15.55;2.92;;;7.80;99.90;;;;;;5016132;28;20053;-66
2021/11/30 07:48:18;;;;;;;21.38;2.70;;;7.70;99.90;;;;;;4972201;28;20050;-66
2021/11/30 07:50:45;;;;;;;21.58;3.28;;;7.80;99.90;;;;;;5013487;28;20085;-66
2021/11/30 07:53:11;;;;;;;19.90;2.75;;;7.70;99.90;;;;;;4999159;28;20389;-62
2021/11/30 07:55:37;;;;;;;16.08;4.40;;;7.70;99.90;;;;;;5015488;28;20496;-65
2021/11/30 07:58:04;;;;;;;24.08;5.90;;;7.70;99.90;;;;;;5018718;28;20049;-64
2021/11/30 08:00:30;;;;;;;26.83;7.47;;;7.80;99.90;;;;;;4999692;28;20081;-65
2021/11/30 08:02:56;;;;;;;25.98;3.70;;;7.80;99.90;;;;;;4998798;28;20045;-66
2021/11/30 08:05:22;;;;;;;18.55;3.20;;;7.80;99.90;;;;;;5010715;28;20049;-66
2021/11/30 08:07:49;;;;;;;17.35;2.58;;;7.80;99.90;;;;;;4994760;28;20053;-67
2021/11/30 08:10:18;;;;;;;13.85;3.10;;;7.90;99.90;;;;;;4978548;28;20045;-66
2021/11/30 08:12:45;;;;;;;22.75;3.05;;;7.90;99.90;;;;;;4980387;28;20096;-67
2021/11/30 08:15:13;;;;;;;26.10;4.07;;;7.90;99.90;;;;;;4995113;28;20132;-66
2021/11/30 08:17:40;;;;;;;16.27;3.50;;;7.90;99.90;;;;;;5032762;28;20043;-66
2021/11/30 08:20:07;;;;;;;21.92;3.13;;;7.90;99.90;;;;;;4999103;28;20156;-66
2021/11/30 08:22:34;;;;;;;14.93;3.05;;;7.90;99.90;;;;;;4983788;28;20523;-66
2021/11/30 08:25:00;;;;;;;19.15;3.08;;;7.90;99.90;;;;;;4983775;28;20102;-66
2021/11/30 08:27:27;;;;;;;26.75;3.63;;;7.90;99.90;;;;;;4997082;28;20096;-65
2021/11/30 08:29:53;;;;;;;25.17;3.50;;;8.00;99.90;;;;;;5027612;28;20057;-65
2021/11/30 08:32:22;;;;;;;19.75;3.53;;;8.00;99.90;;;;;;5019512;28;20045;-65
2021/11/30 08:34:51;;;;;;;15.68;3.17;;;8.00;99.90;;;;;;4980570;28;20103;-66
2021/11/30 08:37:18;;;;;;;16.70;3.22;;;8.00;99.90;;;;;;5017615;28;20045;-64
2021/11/30 08:39:48;;;;;;;21.95;4.88;;;8.00;99.90;;;;;;4984886;28;20045;-65
2021/11/30 08:42:15;;;;;;;20.70;3.38;;;8.00;99.90;;;;;;5015422;28;20073;-67
2021/11/30 08:44:44;;;;;;;16.48;2.90;;;8.00;99.90;;;;;;4998959;28;20392;-66
2021/11/30 08:47:13;;;;;;;20.10;4.05;;;8.00;99.90;;;;;;5015886;28;20045;-66
2021/11/30 08:49:40;;;;;;;17.42;3.20;;;8.00;99.90;;;;;;5031446;28;20053;-66
2021/11/30 08:52:12;;;;;;;17.23;3.00;;;8.00;99.90;;;;;;5016849;28;20049;-66
2021/11/30 08:54:38;;;;;;;22.63;3.25;;;8.00;99.90;;;;;;5016878;28;20053;-66
2021/11/30 08:57:05;;;;;;;18.70;3.65;;;8.10;99.90;;;;;;4998704;28;20045;-66
2021/11/30 08:59:31;;;;;;;16.98;2.78;;;8.10;99.90;;;;;;4997781;28;20505;-67
2021/11/30 09:01:58;;;;;;;24.38;3.28;;;8.10;99.90;;;;;;5013399;28;20468;-66
2021/11/30 09:04:24;;;;;;;14.88;2.85;;;8.10;99.90;;;;;;4996437;28;20038;-66
2021/11/30 09:06:50;;;;;;;15.43;2.70;;;8.10;99.90;;;;;;5005819;28;20401;-66
2021/11/30 09:09:18;;;;;;;14.25;2.78;;;8.10;99.90;;;;;;5013367;28;20057;-67
2021/11/30 09:11:44;;;;;;;16.85;2.90;;;8.10;99.90;;;;;;5031279;28;20050;-72
2021/11/30 09:14:11;;;;;;;16.83;3.05;;;8.10;99.90;;;;;;5014399;28;20045;-71
2021/11/30 09:16:38;;;;;;;20.25;3.20;;;8.10;99.90;;;;;;4997806;28;20052;-71
2021/11/30 09:19:05;;;;;;;18.92;3.22;;;8.10;99.90;;;;;;4998909;28;20045;-72
2021/11/30 09:21:32;;;;;;;14.88;2.28;;;8.10;99.90;;;;;;4999145;28;20057;-74
2021/11/30 09:23:58;;;;;;;19.48;2.67;;;8.10;99.90;;;;;;5013682;28;20053;-75
2021/11/30 09:26:25;;;;;;;18.75;3.20;;;8.00;99.90;;;;;;5030812;28;20124;-67
2021/11/30 09:28:52;;;;;;;21.20;3.38;;;8.00;99.90;;;;;;4996144;28;20100;-74
2021/11/30 09:31:18;;;;;;;17.38;2.58;;;8.00;99.90;;;;;;4976061;28;20050;-71
2021/11/30 09:33:44;;;;;;;23.27;3.53;;;8.00;99.90;;;;;;4964433;28;20085;-71
2021/11/30 09:36:12;;;;;;;18.77;2.85;;;8.00;99.90;;;;;;4960342;28;20050;-72
2021/11/30 09:38:40;;;;;;;20.15;3.22;;;8.00;99.90;;;;;;4996827;28;20050;-59
2021/11/30 09:41:07;;;;;;;19.35;2.80;;;8.10;99.90;;;;;;5012599;28;20049;-69
2021/11/30 09:43:35;;;;;;;20.23;3.05;;;8.10;99.90;;;;;;4959278;28;20054;-70
2021/11/30 09:46:03;;;;;;;19.63;3.15;;;8.10;99.90;;;;;;4976820;28;20504;-70
2021/11/30 09:48:30;;;;;;;20.15;3.22;;;8.10;99.90;;;;;;4975656;28;20050;-67
2021/11/30 09:50:58;;;;;;;18.95;3.40;;;8.20;99.90;;;;;;4995960;28;20049;-68
2021/11/30 09:53:26;;;;;;;15.38;2.60;;;8.20;99.90;;;;;;5010240;28;20130;-75
2021/11/30 09:55:54;;;;;;;17.58;2.72;;;8.20;99.90;;;;;;5014144;28;20081;-75
2021/11/30 09:58:22;;;;;;;16.30;2.97;;;8.20;99.90;;;;;;5031888;28;20055;-77
2021/11/30 10:00:50;;;;;;;18.85;3.75;;;8.20;99.90;;;;;;5031224;28;20437;-68
2021/11/30 10:03:18;;;;;;;16.08;3.13;;;8.20;99.90;;;;;;5001576;28;20069;-74
2021/11/30 10:05:44;;;;;;;18.05;2.60;;;8.20;99.90;;;;;;5046495;28;20056;-75
2021/11/30 10:08:33;;;;;;;14.93;3.00;;;8.10;99.90;;;;;;4995037;28;20079;-75
2021/11/30 10:11:00;;;;;;;22.42;3.88;;;8.10;99.90;;;;;;5009412;28;20064;-75
2021/11/30 10:13:27;;;;;;;11.07;2.05;;;8.10;99.90;;;;;;4995167;28;20049;-75
2021/11/30 10:15:56;;;;;;;13.55;3.00;;;8.00;99.90;;;;;;4994168;28;20120;-68
2021/11/30 10:18:26;;;;;;;15.93;2.72;;;8.00;99.90;;;;;;4989895;28;20047;-77
2021/11/30 10:20:56;;;;;;;13.27;1.73;;;8.00;99.90;;;;;;4997083;28;20050;-72
2021/11/30 10:23:30;;;;;;;7.75;2.15;;;8.10;99.90;;;;;;5011499;28;20045;-67
2021/11/30 10:26:03;;;;;;;13.50;3.80;;;8.20;99.90;;;;;;5029107;28;20049;-69
2021/11/30 10:28:32;;;;;;;12.63;2.88;;;8.30;99.90;;;;;;5027450;28;20134;-69
2021/11/30 10:30:58;;;;;;;11.70;3.08;;;8.30;99.90;;;;;;5012088;28;20374;-69
2021/11/30 10:33:27;;;;;;;10.65;1.85;;;8.40;99.90;;;;;;4979124;28;20492;-69
2021/11/30 10:35:59;;;;;;;12.23;2.40;;;8.40;99.90;;;;;;5010239;28;20053;-70
2021/11/30 10:38:38;;;;;;;12.65;1.90;;;8.40;99.90;;;;;;4997680;28;20609;-70
2021/11/30 10:41:18;;;;;;;15.00;1.73;;;8.40;99.90;;;;;;4995975;28;20384;-70
2021/11/30 10:43:51;;;;;;;12.55;1.75;;;8.50;99.90;;;;;;5027895;28;20053;-70
2021/11/30 10:46:22;;;;;;;11.73;1.95;;;8.50;99.90;;;;;;4995148;28;20100;-70
2021/11/30 10:48:48;;;;;;;11.15;2.20;;;8.40;99.90;;;;;;4996251;28;20404;-72
2021/11/30 10:51:15;;;;;;;12.07;3.83;;;8.40;99.90;;;;;;4979811;28;20061;-71
2021/11/30 10:53:44;;;;;;;11.57;2.08;;;8.40;99.90;;;;;;4988124;28;20049;-72
2021/11/30 10:56:10;;;;;;;11.00;2.25;;;8.40;99.90;;;;;;4999892;28;20139;-70
2021/11/30 10:58:39;;;;;;;18.98;3.00;;;8.30;99.90;;;;;;4977429;28;20088;-69
2021/11/30 11:01:19;;;;;;;12.38;2.65;;;8.30;99.90;;;;;;4977989;28;20057;-69
2021/11/30 11:04:00;;;;;;;16.77;6.00;;;8.30;99.90;;;;;;5009157;28;20053;-68
2021/11/30 11:06:29;;;;;;;12.48;2.25;;;8.20;99.90;;;;;;4976812;28;20132;-68
2021/11/30 11:09:01;;;;;;;12.30;1.88;;;8.10;99.90;;;;;;4995127;28;20045;-68
2021/11/30 11:11:30;;;;;;;10.05;2.78;;;8.10;99.90;;;;;;5014656;28;20068;-68
2021/11/30 11:13:56;;;;;;;11.38;1.85;;;8.10;99.90;;;;;;5032871;28;20083;-67
2021/11/30 11:16:34;;;;;;;15.23;2.65;;;8.10;99.90;;;;;;4998448;28;20045;-67
2021/11/30 11:19:06;;;;;;;18.25;7.60;;;8.10;99.90;;;;;;5000144;28;20120;-69
2021/11/30 11:21:33;;;;;;;11.48;3.75;;;8.10;99.90;;;;;;5015851;28;20115;-67
2021/11/30 11:24:25;;;;;;;11.27;2.53;;;8.10;99.90;;;;;;4999628;28;20091;-69
2021/11/30 11:26:56;;;;;;;11.93;2.83;;;8.00;99.90;;;;;;4983787;28;20041;-67
2021/11/30 11:29:28;;;;;;;20.77;2.88;;;7.90;99.90;;;;;;5015261;28;20107;-67
2021/11/30 11:32:13;;;;;;;14.25;2.90;;;7.90;99.90;;;;;;5014641;28;20495;-68
2021/11/30 11:34:39;;;;;;;19.52;3.15;;;7.70;99.90;;;;;;5011463;28;20049;-65
2021/11/30 11:37:09;;;;;;;11.23;2.55;;;7.60;99.90;;;;;;4989994;28;20041;-68
2021/11/30 11:39:36;;;;;;;16.42;2.83;;;7.50;99.90;;;;;;4976604;28;20049;-67
2021/11/30 11:42:13;;;;;;;17.25;3.20;;;7.50;99.90;;;;;;4985669;28;20050;-67
2021/11/30 11:44:40;;;;;;;14.98;2.38;;;7.50;99.90;;;;;;5013095;28;20061;-67
2021/11/30 11:47:13;;;;;;;17.55;2.53;;;7.40;99.90;;;;;;4997290;28;20637;-67
2021/11/30 11:49:45;;;;;;;24.95;3.15;;;7.40;99.90;;;;;;4998154;28;20606;-66
2021/11/30 11:52:27;;;;;;;17.95;2.83;;;7.30;99.90;;;;;;5014640;28;20054;-66
2021/11/30 11:55:06;;;;;;;17.70;2.60;;;7.30;99.90;;;;;;5014133;28;20180;-65
2021/11/30 11:57:34;;;;;;;19.05;3.13;;;7.30;99.90;;;;;;5029324;28;20064;-67
2021/11/30 12:00:22;;;;;;;16.02;3.33;;;7.30;99.90;;;;;;5013356;28;20455;-67
2021/11/30 12:02:58;;;;;;;18.38;3.25;;;7.30;99.90;;;;;;5014355;28;20140;-67
2021/11/30 12:05:43;;;;;;;18.50;3.40;;;7.30;99.90;;;;;;4981902;28;20084;-69
2021/11/30 12:08:23;;;;;;;14.68;2.40;;;7.30;99.90;;;;;;4982072;28;20116;-68
2021/11/30 12:10:50;;;;;;;11.38;2.92;;;7.30;99.90;;;;;;5013698;28;20045;-68
2021/11/30 12:13:22;;;;;;;18.38;3.03;;;7.30;99.90;;;;;;5013879;28;20053;-68
2021/11/30 12:16:00;;;;;;;11.88;2.90;;;7.30;99.90;;;;;;4981334;28;20111;-68
2021/11/30 12:18:43;;;;;;;16.00;2.45;;;7.30;99.90;;;;;;4981972;28;20076;-74
2021/11/30 12:21:23;;;;;;;12.60;2.92;;;7.30;99.90;;;;;;5013309;28;20049;-68
2021/11/30 12:23:57;;;;;;;13.77;2.80;;;7.40;99.90;;;;;;5013999;28;20053;-73
2021/11/30 12:26:44;;;;;;;20.52;3.35;;;7.40;99.90;;;;;;4996516;28;20128;-68
2021/11/30 12:29:23;;;;;;;20.42;3.35;;;7.30;99.90;;;;;;4993335;28;20054;-67
2021/11/30 12:31:52;;;;;;;12.15;2.67;;;7.40;99.90;;;;;;5012811;28;20087;-68
2021/11/30 12:34:40;;;;;;;14.93;2.75;;;7.30;99.90;;;;;;4997669;28;20056;-67
2021/11/30 12:37:07;;;;;;;15.55;2.85;;;7.30;99.90;;;;;;4998137;28;20056;-74
2021/11/30 12:40:09;;;;;;;20.10;5.28;;;7.30;99.90;;;;;;5008854;28;20512;-74
2021/11/30 12:42:39;;;;;;;17.77;3.77;;;7.30;99.90;;;;;;4995826;28;20059;-67
2021/11/30 12:45:38;;;;;;;17.35;3.17;;;7.30;99.90;;;;;;4980761;28;20049;-74
2021/11/30 12:48:14;;;;;;;17.25;2.97;;;7.30;99.90;;;;;;4997694;28;20477;-73
2021/11/30 12:50:40;;;;;;;17.52;3.53;;;7.30;99.90;;;;;;5013157;28;20092;-66
2021/11/30 12:53:07;;;;;;;21.58;2.92;;;7.30;99.90;;;;;;5013845;28;20152;-66
2021/11/30 12:55:53;;;;;;;16.77;3.28;;;7.30;99.90;;;;;;5013185;28;20084;-72
2021/11/30 12:58:37;;;;;;;22.42;3.83;;;7.20;99.90;;;;;;4981190;28;20046;-65
2021/11/30 13:01:11;;;;;;;19.83;3.75;;;7.20;99.90;;;;;;4996501;28;20057;-66
2021/11/30 13:03:37;;;;;;;18.45;3.47;;;7.30;99.90;;;;;;5013239;28;20065;-65
2021/11/30 13:06:04;;;;;;;15.93;3.10;;;7.30;99.90;;;;;;4997000;28;20046;-65
2021/11/30 13:08:30;;;;;;;22.35;4.05;;;7.30;99.90;;;;;;4980756;28;20183;-65